Time;durP1;ratioP1;P1;durP2;ratioP2;P2;SDS_P1;SDS_P2;PMS_P1;PMS_P2;Temp;Humidity;BMP_temperature;BMP_pressure;BME280_temperature;BME280_humidity;BME280_pressure;Samples;Min_cycle;Max_cycle;Signal;HPM_P1;HPM_P2
2024/01/31 00:01:10;;;;;;;24.50;18.88;;;;;;;0.17;100.00;97784.94;5079272;28;20060;-68
2024/01/31 00:03:36;;;;;;;28.42;18.58;;;;;;;0.16;100.00;97783.25;5068052;28;20028;-68
2024/01/31 00:06:02;;;;;;;19.02;15.95;;;;;;;0.12;100.00;97782.44;5071277;28;20025;-68
2024/01/31 00:08:27;;;;;;;21.35;16.50;;;;;;;0.10;100.00;97785.91;5071524;28;20528;-68
2024/01/31 00:10:53;;;;;;;20.25;16.55;;;;;;;0.06;100.00;97784.25;5076133;28;20091;-68
2024/01/31 00:13:18;;;;;;;21.38;16.65;;;;;;;0.04;100.00;97786.03;5076036;28;20620;-68
2024/01/31 00:15:43;;;;;;;19.65;16.00;;;;;;;0.04;100.00;97783.44;5073259;28;20118;-68
2024/01/31 00:18:09;;;;;;;17.23;13.93;;;;;;;-0.01;100.00;97792.13;5067920;28;20039;-68
2024/01/31 00:20:34;;;;;;;16.30;14.00;;;;;;;-0.02;100.00;97787.84;5069452;28;20051;-68
2024/01/31 00:23:00;;;;;;;18.23;14.65;;;;;;;-0.01;100.00;97793.84;5068178;28;20025;-68
2024/01/31 00:25:25;;;;;;;18.67;14.18;;;;;;;-0.02;100.00;97786.97;5074259;28;20044;-68
2024/01/31 00:27:51;;;;;;;20.02;15.88;;;;;;;-0.02;100.00;97787.84;5067308;28;20110;-68
2024/01/31 00:30:17;;;;;;;16.40;13.38;;;;;;;-0.05;100.00;97787.03;5071688;28;20019;-68
2024/01/31 00:32:42;;;;;;;15.93;13.77;;;;;;;-0.09;100.00;97793.13;5066973;28;20490;-68
2024/01/31 00:35:08;;;;;;;18.13;13.98;;;;;;;-0.12;100.00;97794.03;5064664;28;20024;-68
2024/01/31 00:37:33;;;;;;;18.25;14.05;;;;;;;-0.16;100.00;97792.38;5072200;28;20032;-68
2024/01/31 00:39:59;;;;;;;24.58;13.57;;;;;;;-0.15;100.00;97796.66;5070299;28;20033;-68
2024/01/31 00:42:24;;;;;;;17.27;14.63;;;;;;;-0.18;100.00;97800.19;5065234;28;20419;-68
2024/01/31 00:44:50;;;;;;;16.77;13.38;;;;;;;-0.26;100.00;97796.00;5063131;28;20123;-68
2024/01/31 00:47:15;;;;;;;17.35;13.15;;;;;;;-0.31;100.00;97791.75;5070864;28;20024;-67
2024/01/31 00:49:40;;;;;;;14.90;12.70;;;;;;;-0.30;100.00;97797.75;5068901;28;20021;-68
2024/01/31 00:52:06;;;;;;;13.63;11.68;;;;;;;-0.32;100.00;97796.94;5075918;28;20060;-68
2024/01/31 00:54:31;;;;;;;15.57;12.50;;;;;;;-0.32;100.00;97791.75;5071060;28;20025;-68
2024/01/31 00:56:56;;;;;;;14.40;12.60;;;;;;;-0.24;100.00;97796.81;5067283;28;20020;-68
2024/01/31 00:59:22;;;;;;;14.73;12.48;;;;;;;-0.25;100.00;97800.28;5069500;28;20055;-67
2024/01/31 01:01:47;;;;;;;15.25;12.88;;;;;;;-0.23;100.00;97801.13;5083683;28;20492;-67
2024/01/31 01:04:13;;;;;;;16.40;12.05;;;;;;;-0.26;100.00;97790.81;5074428;28;20048;-67
2024/01/31 01:06:41;;;;;;;15.38;11.48;;;;;;;-0.27;100.00;97791.69;5069662;28;20035;-67
2024/01/31 01:09:07;;;;;;;13.63;12.07;;;;;;;-0.27;100.00;97791.69;5066704;28;20473;-67
2024/01/31 01:11:32;;;;;;;14.25;12.43;;;;;;;-0.33;100.00;97785.75;5072261;28;20048;-68
2024/01/31 01:13:57;;;;;;;12.90;11.40;;;;;;;-0.34;100.00;97784.00;5068622;28;20035;-68
2024/01/31 01:16:23;;;;;;;14.20;12.27;;;;;;;-0.36;100.00;97790.94;5068088;28;20659;-68
2024/01/31 01:18:48;;;;;;;17.65;12.80;;;;;;;-0.38;100.00;97795.28;5071384;28;20032;-67
2024/01/31 01:21:14;;;;;;;16.67;13.52;;;;;;;-0.43;100.00;97794.50;5069856;28;20032;-67
2024/01/31 01:23:39;;;;;;;15.18;13.02;;;;;;;-0.46;100.00;97797.13;5066791;28;20028;-67
2024/01/31 01:26:04;;;;;;;15.55;13.05;;;;;;;-0.44;100.00;97797.97;5069976;28;20028;-68
2024/01/31 01:28:30;;;;;;;15.38;11.73;;;;;;;-0.42;100.00;97801.38;5071920;28;20103;-67
2024/01/31 01:30:55;;;;;;;16.17;13.52;;;;;;;-0.45;100.00;97802.28;5065390;28;20048;-67
2024/01/31 01:33:21;;;;;;;15.30;11.55;;;;;;;-0.46;100.00;97803.16;5073086;28;20544;-68
2024/01/31 01:35:46;;;;;;;14.10;12.63;;;;;;;-0.48;100.00;97799.72;5069625;28;20043;-68
2024/01/31 01:38:12;;;;;;;13.52;12.20;;;;;;;-0.47;100.00;97798.03;5070213;28;20035;-68
2024/01/31 01:40:44;;;;;;;15.68;11.30;;;;;;;-0.45;100.00;97796.25;5074215;28;20037;-68
2024/01/31 01:43:20;;;;;;;15.77;12.15;;;;;;;-0.46;100.00;97795.38;5071366;28;20402;-67
2024/01/31 01:45:46;;;;;;;15.98;11.50;;;;;;;-0.45;100.00;97791.09;5062092;28;20032;-68
2024/01/31 01:48:14;;;;;;;16.65;13.05;;;;;;;-0.45;100.00;97785.91;5064926;28;20088;-68
2024/01/31 01:50:40;;;;;;;20.38;13.07;;;;;;;-0.52;100.00;97779.13;5076575;28;20052;-68
2024/01/31 01:53:06;;;;;;;17.35;13.77;;;;;;;-0.56;100.00;97772.25;5067178;28;20062;-67
2024/01/31 01:55:32;;;;;;;17.40;13.15;;;;;;;-0.58;100.00;97780.06;5065525;28;20548;-68
2024/01/31 01:57:57;;;;;;;17.45;12.90;;;;;;;-0.65;100.00;97774.09;5071689;28;20028;-68
2024/01/31 02:00:24;;;;;;;13.60;11.82;;;;;;;-0.65;100.00;97766.34;5080376;28;20024;-68
2024/01/31 02:02:50;;;;;;;16.80;11.48;;;;;;;-0.62;100.00;97768.03;5065354;28;20162;-68
2024/01/31 02:05:16;;;;;;;12.18;10.80;;;;;;;-0.59;100.00;97778.34;5071954;28;20032;-68
2024/01/31 02:07:43;;;;;;;13.63;11.10;;;;;;;-0.58;100.00;97775.72;5072855;28;20029;-68
2024/01/31 02:10:09;;;;;;;13.82;10.70;;;;;;;-0.60;100.00;97761.13;5074879;28;20503;-68
2024/01/31 02:12:34;;;;;;;13.20;10.20;;;;;;;-0.59;100.00;97768.00;5073122;28;20063;-68
2024/01/31 02:15:00;;;;;;;11.90;9.63;;;;;;;-0.62;100.00;97758.53;5071440;28;20711;-68
2024/01/31 02:17:25;;;;;;;10.20;9.27;;;;;;;-0.62;100.00;97760.28;5072416;28;20028;-68
2024/01/31 02:19:51;;;;;;;11.75;9.07;;;;;;;-0.64;100.00;97754.28;5071440;28;20064;-68
2024/01/31 02:22:18;;;;;;;11.60;9.40;;;;;;;-0.67;100.00;97757.75;5075030;28;20028;-68
2024/01/31 02:24:43;;;;;;;11.30;9.73;;;;;;;-0.70;100.00;97755.22;5074586;28;20569;-68
2024/01/31 02:27:09;;;;;;;11.13;9.00;;;;;;;-0.73;100.00;97755.25;5078171;28;20220;-68
2024/01/31 02:29:37;;;;;;;10.60;9.38;;;;;;;-0.73;100.00;97757.84;5077406;28;20728;-68
2024/01/31 02:32:02;;;;;;;9.55;8.65;;;;;;;-0.75;100.00;97757.00;5071699;28;20067;-68
2024/01/31 02:34:28;;;;;;;10.35;9.35;;;;;;;-0.78;100.00;97754.44;5069856;28;20036;-67
2024/01/31 02:36:53;;;;;;;10.10;9.10;;;;;;;-0.79;100.00;97760.50;5065918;28;20032;-68
2024/01/31 02:39:19;;;;;;;10.55;9.25;;;;;;;-0.82;100.00;97757.97;5068569;28;20024;-68
2024/01/31 02:41:44;;;;;;;11.05;9.70;;;;;;;-0.79;100.00;97760.50;5074278;28;20135;-67
2024/01/31 02:44:10;;;;;;;10.80;9.70;;;;;;;-0.78;100.00;97757.03;5075032;28;20537;-67
2024/01/31 02:46:37;;;;;;;13.13;11.40;;;;;;;-0.85;100.00;97761.47;5071154;28;20064;-68
2024/01/31 02:49:02;;;;;;;16.15;11.57;;;;;;;-0.86;100.00;97759.75;5072905;28;20032;-67
2024/01/31 02:51:28;;;;;;;12.38;10.48;;;;;;;-0.84;100.00;97759.72;5066636;28;20025;-67
2024/01/31 02:53:53;;;;;;;10.70;9.60;;;;;;;-0.91;100.00;97756.34;5074134;28;20039;-67
2024/01/31 02:56:19;;;;;;;13.63;10.20;;;;;;;-0.97;100.00;97761.59;5071449;28;20023;-67
2024/01/31 02:58:44;;;;;;;13.52;11.07;;;;;;;-0.95;100.00;97759.84;5069376;28;20020;-67
2024/01/31 03:01:09;;;;;;;14.65;10.38;;;;;;;-0.96;100.00;97753.84;5075126;28;20115;-67
2024/01/31 03:03:35;;;;;;;12.27;10.43;;;;;;;-0.95;100.00;97755.56;5069379;28;20024;-68
2024/01/31 03:06:00;;;;;;;12.27;10.98;;;;;;;-0.96;100.00;97753.84;5080349;28;20039;-68
2024/01/31 03:08:26;;;;;;;13.95;10.57;;;;;;;-0.94;100.00;97753.81;5066531;28;20098;-68
2024/01/31 03:10:51;;;;;;;15.10;10.13;;;;;;;-0.96;100.00;97753.84;5075426;28;20028;-68
2024/01/31 03:13:17;;;;;;;11.88;10.20;;;;;;;-0.97;100.00;97757.31;5069982;28;20036;-67
2024/01/31 03:15:42;;;;;;;13.00;9.85;;;;;;;-0.97;100.00;97754.72;5074891;28;20059;-68
2024/01/31 03:18:08;;;;;;;14.30;10.60;;;;;;;-0.97;100.00;97757.31;5073418;28;20043;-67
2024/01/31 03:20:34;;;;;;;11.60;10.15;;;;;;;-0.99;100.00;97756.47;5072329;28;20090;-68
2024/01/31 03:23:00;;;;;;;21.80;15.13;;;;;;;-0.98;100.00;97759.91;5067064;28;20021;-67
2024/01/31 03:25:26;;;;;;;19.40;12.85;;;;;;;-0.99;100.00;97766.81;5079760;28;20032;-68
2024/01/31 03:27:52;;;;;;;17.05;12.45;;;;;;;-0.99;100.00;97759.06;5064615;28;20043;-67
2024/01/31 03:30:17;;;;;;;16.00;11.95;;;;;;;-0.98;100.00;97757.31;5072048;28;20133;-68
2024/01/31 03:32:43;;;;;;;19.83;11.73;;;;;;;-1.01;100.00;97760.78;5074274;28;20052;-67
2024/01/31 03:35:08;;;;;;;13.50;10.75;;;;;;;-1.02;100.00;97761.66;5066523;28;20036;-67
2024/01/31 03:37:34;;;;;;;16.23;11.18;;;;;;;-1.06;100.00;97758.28;5067281;28;20048;-67
2024/01/31 03:39:59;;;;;;;16.80;11.00;;;;;;;-1.06;100.00;97758.28;5076792;28;20116;-67
2024/01/31 03:42:25;;;;;;;16.67;11.80;;;;;;;-1.07;100.00;97763.44;5070888;28;20051;-67
2024/01/31 03:44:50;;;;;;;13.27;10.48;;;;;;;-1.10;100.00;97756.59;5065700;28;20025;-67
2024/01/31 03:47:15;;;;;;;12.90;9.65;;;;;;;-1.12;100.00;97762.66;5072097;28;20032;-68
2024/01/31 03:49:41;;;;;;;15.48;10.38;;;;;;;-1.09;100.00;97757.44;5073471;28;20416;-68
2024/01/31 03:52:06;;;;;;;13.48;10.15;;;;;;;-1.09;100.00;97763.50;5068330;28;20025;-67
2024/01/31 03:54:32;;;;;;;14.55;10.00;;;;;;;-1.08;100.00;97759.16;5071269;28;20035;-67
2024/01/31 03:56:57;;;;;;;11.70;10.43;;;;;;;-1.06;100.00;97762.56;5067296;28;20032;-68
2024/01/31 03:59:23;;;;;;;11.98;9.50;;;;;;;-1.08;100.00;97756.56;5073329;28;20052;-68
2024/01/31 04:01:52;;;;;;;13.80;10.45;;;;;;;-1.08;100.00;97746.22;5078591;28;20031;-67
2024/01/31 04:04:17;;;;;;;16.65;9.77;;;;;;;-1.07;100.00;97747.94;5069146;28;20483;-68
2024/01/31 04:06:43;;;;;;;13.30;9.25;;;;;;;-1.13;100.00;97742.84;5072436;28;20569;-68
2024/01/31 04:09:08;;;;;;;9.98;8.38;;;;;;;-1.12;100.00;97741.97;5075006;28;20544;-67
2024/01/31 04:11:34;;;;;;;12.40;8.70;;;;;;;-1.14;100.00;97738.56;5072388;28;20032;-68
2024/01/31 04:14:01;;;;;;;11.30;8.43;;;;;;;-1.14;100.00;97720.47;5066105;28;20059;-67
2024/01/31 04:16:27;;;;;;;8.25;7.07;;;;;;;-1.16;100.00;97725.63;5069105;28;20032;-67
2024/01/31 04:18:53;;;;;;;12.75;8.48;;;;;;;-1.20;100.00;97727.44;5070274;28;20070;-67
2024/01/31 04:21:22;;;;;;;11.70;8.07;;;;;;;-1.19;100.00;97718.81;5068394;28;20116;-68
2024/01/31 04:23:48;;;;;;;9.20;7.85;;;;;;;-1.19;100.00;97721.38;5066185;28;20036;-67
2024/01/31 04:26:13;;;;;;;10.77;7.55;;;;;;;-1.16;100.00;97723.94;5067205;28;20033;-68
2024/01/31 04:28:38;;;;;;;9.02;7.57;;;;;;;-1.17;100.00;97729.09;5069787;28;20032;-67
2024/01/31 04:31:04;;;;;;;8.50;7.60;;;;;;;-1.19;100.00;97725.69;5070176;28;20047;-67
2024/01/31 04:33:29;;;;;;;7.63;6.82;;;;;;;-1.19;100.00;97730.84;5071133;28;20032;-67
2024/01/31 04:35:55;;;;;;;10.00;7.68;;;;;;;-1.20;100.00;97727.44;5068345;28;20050;-67
2024/01/31 04:38:20;;;;;;;10.38;7.63;;;;;;;-1.20;100.00;97727.44;5070961;28;20042;-68
2024/01/31 04:40:45;;;;;;;7.78;6.78;;;;;;;-1.17;100.00;97729.09;5071364;28;20034;-67
2024/01/31 04:43:15;;;;;;;9.73;7.88;;;;;;;-1.20;100.00;97729.16;5071295;28;20049;-67
2024/01/31 04:45:41;;;;;;;10.27;7.18;;;;;;;-1.26;100.00;97726.66;5072103;28;20040;-68
2024/01/31 04:48:06;;;;;;;7.82;7.03;;;;;;;-1.31;100.00;97730.16;5070921;28;20637;-67
2024/01/31 04:50:32;;;;;;;13.10;9.40;;;;;;;-1.29;100.00;97730.09;5070881;28;20045;-67
2024/01/31 04:52:57;;;;;;;20.67;11.77;;;;;;;-1.24;100.00;97733.50;5068156;28;20052;-67
2024/01/31 04:55:22;;;;;;;15.27;11.05;;;;;;;-1.26;100.00;97730.06;5072519;28;20042;-67
2024/01/31 04:57:48;;;;;;;9.13;8.00;;;;;;;-1.25;100.00;97726.59;5065998;28;20052;-68
2024/01/31 05:00:17;;;;;;;9.13;8.10;;;;;;;-1.22;100.00;97731.72;5072216;28;20029;-67
2024/01/31 05:02:43;;;;;;;8.30;7.35;;;;;;;-1.24;100.00;97725.72;5068979;28;20028;-68
2024/01/31 05:05:08;;;;;;;8.68;6.78;;;;;;;-1.25;100.00;97726.59;5071470;28;20088;-67
2024/01/31 05:07:34;;;;;;;15.63;10.73;;;;;;;-1.30;100.00;97736.16;5068323;28;20032;-67
2024/01/31 05:09:59;;;;;;;15.63;11.18;;;;;;;-1.30;100.00;97734.44;5067830;28;20016;-67
2024/01/31 05:12:24;;;;;;;15.10;10.85;;;;;;;-1.32;100.00;97738.78;5066229;28;20020;-67
2024/01/31 05:14:50;;;;;;;17.73;11.95;;;;;;;-1.32;100.00;97736.19;5070746;28;20714;-67
2024/01/31 05:17:15;;;;;;;16.63;11.00;;;;;;;-1.33;100.00;97739.66;5073786;28;20103;-67
2024/01/31 05:19:44;;;;;;;22.38;15.50;;;;;;;-1.34;100.00;97734.50;5075375;28;20032;-67
2024/01/31 05:22:10;;;;;;;18.88;13.77;;;;;;;-1.34;100.00;97737.06;5071152;28;20551;-68
2024/01/31 05:24:35;;;;;;;19.85;13.98;;;;;;;-1.30;100.00;97739.63;5069168;28;20075;-67
2024/01/31 05:27:03;;;;;;;18.90;12.60;;;;;;;-1.31;100.00;97739.63;5064329;28;20032;-68
2024/01/31 05:29:29;;;;;;;17.20;12.07;;;;;;;-1.40;100.00;97731.97;5067135;28;20497;-67
2024/01/31 05:31:55;;;;;;;15.35;12.20;;;;;;;-1.40;100.00;97732.81;5074586;28;20024;-67
2024/01/31 05:34:22;;;;;;;12.15;9.60;;;;;;;-1.40;100.00;97731.97;5065259;28;20102;-67
2024/01/31 05:36:48;;;;;;;9.48;8.48;;;;;;;-1.42;100.00;97734.56;5070055;28;20485;-67
2024/01/31 05:39:13;;;;;;;12.43;8.52;;;;;;;-1.38;100.00;97738.00;5073643;28;20134;-67
2024/01/31 05:41:43;;;;;;;12.93;10.00;;;;;;;-1.36;100.00;97741.41;5072364;28;20516;-67
2024/01/31 05:44:08;;;;;;;11.30;10.02;;;;;;;-1.36;100.00;97738.81;5075391;28;20028;-67
2024/01/31 05:46:34;;;;;;;11.63;9.40;;;;;;;-1.38;100.00;97741.41;5075343;28;20073;-67
2024/01/31 05:49:01;;;;;;;10.65;9.55;;;;;;;-1.36;100.00;97741.41;5070143;28;20096;-68
2024/01/31 05:51:27;;;;;;;11.43;8.95;;;;;;;-1.32;100.00;97750.81;5076327;28;20169;-68
2024/01/31 05:53:53;;;;;;;10.60;9.50;;;;;;;-1.34;100.00;97739.66;5068520;28;20070;-67
2024/01/31 05:56:18;;;;;;;13.13;8.52;;;;;;;-1.37;100.00;97742.28;5074176;28;20021;-67
2024/01/31 05:58:43;;;;;;;10.13;8.55;;;;;;;-1.38;100.00;97740.56;5071738;28;20025;-67
2024/01/31 06:01:09;;;;;;;12.43;8.20;;;;;;;-1.38;100.00;97743.16;5072535;28;20036;-67
2024/01/31 06:03:34;;;;;;;8.75;7.95;;;;;;;-1.37;100.00;97742.28;5072237;28;20063;-68
2024/01/31 06:06:00;;;;;;;9.07;8.18;;;;;;;-1.37;100.00;97747.44;5067320;28;20030;-68
2024/01/31 06:08:25;;;;;;;9.27;8.30;;;;;;;-1.38;100.00;97746.56;5071123;28;20032;-68
2024/01/31 06:10:54;;;;;;;10.27;9.13;;;;;;;-1.38;100.00;97741.41;5074405;28;20035;-68
2024/01/31 06:13:20;;;;;;;11.65;8.48;;;;;;;-1.37;100.00;97743.13;5077478;28;20042;-67
2024/01/31 06:15:46;;;;;;;11.40;9.15;;;;;;;-1.39;100.00;97739.69;5075382;28;20021;-67
2024/01/31 06:18:14;;;;;;;11.70;8.35;;;;;;;-1.44;100.00;97744.06;5076056;28;20032;-67
2024/01/31 06:20:40;;;;;;;12.50;8.45;;;;;;;-1.48;100.00;97735.50;5073911;28;20028;-67
2024/01/31 06:23:09;;;;;;;9.60;8.60;;;;;;;-1.55;100.00;97736.44;5072447;28;20405;-67
2024/01/31 06:25:36;;;;;;;13.98;8.95;;;;;;;-1.54;100.00;97734.72;5066750;28;20048;-68
2024/01/31 06:28:01;;;;;;;14.95;8.60;;;;;;;-1.55;100.00;97736.44;5064973;28;20060;-68
2024/01/31 06:30:31;;;;;;;12.68;8.45;;;;;;;-1.53;100.00;97747.59;5072310;28;20539;-67
2024/01/31 06:33:05;;;;;;;13.77;12.32;;;;;;;-1.52;100.00;97746.75;5067548;28;20572;-68
2024/01/31 06:35:31;;;;;;;18.38;13.98;;;;;;;-1.50;100.00;97742.41;5066607;28;20493;-67
2024/01/31 06:37:57;;;;;;;14.60;12.02;;;;;;;-1.50;100.00;97741.56;5067214;28;20033;-68
2024/01/31 06:40:22;;;;;;;13.10;9.93;;;;;;;-1.56;100.00;97739.91;5066300;28;20056;-67
2024/01/31 06:42:48;;;;;;;9.95;9.05;;;;;;;-1.58;100.00;97737.31;5068471;28;20506;-67
2024/01/31 06:45:14;;;;;;;8.75;7.97;;;;;;;-1.56;100.00;97746.78;5066467;28;20048;-67
2024/01/31 06:47:40;;;;;;;10.55;8.57;;;;;;;-1.54;100.00;97748.47;5067089;28;20028;-68
2024/01/31 06:50:05;;;;;;;14.30;8.30;;;;;;;-1.47;100.00;97752.69;5068340;28;20035;-67
2024/01/31 06:52:31;;;;;;;10.63;8.77;;;;;;;-1.45;100.00;97750.94;5070689;28;20107;-67
2024/01/31 06:54:56;;;;;;;10.02;9.00;;;;;;;-1.47;100.00;97757.03;5086174;28;20086;-69
2024/01/31 06:57:22;;;;;;;12.10;9.35;;;;;;;-1.48;100.00;97751.00;5065956;28;20020;-68
2024/01/31 06:59:47;;;;;;;9.82;8.75;;;;;;;-1.43;100.00;97752.69;5080435;28;20020;-69
2024/01/31 07:02:12;;;;;;;13.23;11.07;;;;;;;-1.40;100.00;97758.66;5077427;28;20039;-67
2024/01/31 07:04:38;;;;;;;17.02;12.80;;;;;;;-1.36;100.00;97760.34;5069083;28;20027;-66
2024/01/31 07:07:03;;;;;;;17.20;12.45;;;;;;;-1.28;100.00;97764.59;5062926;28;20075;-67
2024/01/31 07:09:29;;;;;;;17.13;13.05;;;;;;;-1.20;100.00;97765.34;5066726;28;20554;-67
2024/01/31 07:11:56;;;;;;;13.93;11.77;;;;;;;-1.15;100.00;97766.13;5062215;28;20028;-67
2024/01/31 07:14:22;;;;;;;24.38;15.10;;;;;;;-1.19;100.00;97767.03;5074700;28;20028;-68
2024/01/31 07:16:47;;;;;;;21.05;15.27;;;;;;;-1.13;100.00;97763.53;5075216;28;20025;-67
2024/01/31 07:19:13;;;;;;;16.75;14.32;;;;;;;-1.05;100.00;97759.13;5076607;28;20038;-67
2024/01/31 07:21:39;;;;;;;16.20;14.10;;;;;;;-0.96;100.00;97763.31;5073095;28;20028;-66
2024/01/31 07:24:05;;;;;;;16.60;13.82;;;;;;;-0.93;100.00;97771.91;5071226;28;20086;-67
2024/01/31 07:26:30;;;;;;;14.35;12.95;;;;;;;-0.84;100.00;97764.88;5073539;28;20563;-67
2024/01/31 07:28:56;;;;;;;13.88;12.38;;;;;;;-0.72;100.00;97772.50;5068120;28;20035;-66
2024/01/31 07:31:21;;;;;;;13.50;12.15;;;;;;;-0.64;100.00;97765.47;5066736;28;20021;-67
2024/01/31 07:33:47;;;;;;;14.30;10.57;;;;;;;-0.58;100.00;97765.38;5065018;28;20025;-68
2024/01/31 07:36:13;;;;;;;10.55;9.50;;;;;;;-0.46;100.00;97769.50;5065806;28;21030;-66
2024/01/31 07:38:43;;;;;;;10.55;9.48;;;;;;;-0.34;100.00;97765.88;5062653;28;20027;-66
2024/01/31 07:41:09;;;;;;;15.95;9.98;;;;;;;-0.32;100.00;97764.16;5063864;28;20024;-69
2024/01/31 07:43:34;;;;;;;10.32;9.30;;;;;;;-0.27;100.00;97761.47;5064968;28;20089;-68
2024/01/31 07:46:00;;;;;;;9.20;8.25;;;;;;;-0.18;100.00;97755.28;5061527;28;20029;-68
2024/01/31 07:48:25;;;;;;;9.95;8.77;;;;;;;-0.14;100.00;97756.94;5074890;28;20056;-69
2024/01/31 07:50:51;;;;;;;10.75;8.77;;;;;;;-0.06;100.00;97757.69;5068928;28;20012;-68
2024/01/31 07:53:16;;;;;;;9.98;8.98;;;;;;;0.03;100.00;97759.28;5059436;28;20030;-68
2024/01/31 07:55:42;;;;;;;32.83;12.20;;;;;;;0.11;100.00;97761.72;5073361;28;20123;-68
2024/01/31 07:58:07;;;;;;;20.40;12.70;;;;;;;0.21;100.00;97763.28;5060381;28;20029;-68
2024/01/31 08:00:33;;;;;;;22.80;12.88;;;;;;;0.31;100.00;97766.56;5069629;28;20013;-68
2024/01/31 08:02:58;;;;;;;22.00;16.50;;;;;;;0.46;100.00;97774.94;5067700;28;20221;-68
2024/01/31 08:05:23;;;;;;;85.95;61.15;;;;;;;0.61;100.00;97769.47;5072677;28;20031;-68
2024/01/31 08:07:49;;;;;;;64.47;43.17;;;;;;;0.68;100.00;97770.19;5065601;28;20036;-68
2024/01/31 08:10:14;;;;;;;56.83;41.30;;;;;;;0.75;100.00;97769.19;5069894;28;20023;-68
2024/01/31 08:12:41;;;;;;;48.88;32.75;;;;;;;0.85;100.00;97773.31;5062340;28;20029;-68
2024/01/31 08:15:07;;;;;;;40.78;25.85;;;;;;;0.88;100.00;97768.97;5068817;28;20386;-68
2024/01/31 08:17:32;;;;;;;37.85;28.00;;;;;;;0.95;100.00;97774.00;5066530;28;20100;-68
2024/01/31 08:19:58;;;;;;;49.20;27.67;;;;;;;1.00;100.00;97781.69;5061789;28;20071;-68
2024/01/31 08:22:23;;;;;;;32.58;27.13;;;;;;;1.05;100.00;97773.78;5070229;28;20036;-68
2024/01/31 08:24:49;;;;;;;41.88;25.92;;;;;;;1.12;100.00;97778.81;5066978;28;20029;-69
2024/01/31 08:27:17;;;;;;;51.08;26.45;;;;;;;1.19;100.00;97774.38;5064781;28;20590;-69
2024/01/31 08:29:43;;;;;;;48.10;28.70;;;;;;;1.18;100.00;97779.56;5069445;28;20494;-68
2024/01/31 08:32:09;;;;;;;31.88;20.25;;;;;;;1.16;100.00;97779.63;5065170;28;20063;-69
2024/01/31 08:34:34;;;;;;;18.38;13.20;;;;;;;1.19;100.00;97783.88;5067854;28;20098;-68
2024/01/31 08:36:59;;;;;;;17.08;13.13;;;;;;;1.27;100.00;97795.81;5072581;28;20082;-68
2024/01/31 08:39:25;;;;;;;11.75;10.65;;;;;;;1.37;100.00;97787.84;5067129;28;20024;-68
2024/01/31 08:41:50;;;;;;;12.40;9.82;;;;;;;1.43;100.00;97785.94;5057711;28;20556;-68
2024/01/31 08:44:15;;;;;;;12.18;10.35;;;;;;;1.53;100.00;97791.78;5069290;28;20123;-67
2024/01/31 08:46:41;;;;;;;14.43;10.15;;;;;;;1.62;100.00;97789.88;5066884;28;20031;-68
2024/01/31 08:49:06;;;;;;;16.08;9.60;;;;;;;1.77;100.00;97786.94;5065528;28;20031;-68
2024/01/31 08:51:35;;;;;;;15.10;9.88;;;;;;;1.86;100.00;97786.72;5054887;28;20017;-68
2024/01/31 08:54:00;;;;;;;16.45;9.57;;;;;;;1.96;100.00;97781.28;5059548;28;20025;-69
2024/01/31 08:56:26;;;;;;;18.30;9.90;;;;;;;2.05;100.00;97772.41;5062105;28;20077;-68
2024/01/31 08:58:51;;;;;;;10.80;9.07;;;;;;;2.17;100.00;97769.53;5068845;28;20074;-68
2024/01/31 09:01:17;;;;;;;10.35;9.35;;;;;;;2.24;100.00;97763.28;5067895;28;20049;-68
2024/01/31 09:03:43;;;;;;;17.65;9.43;;;;;;;2.38;100.00;97764.66;5066439;28;20048;-68
2024/01/31 09:06:08;;;;;;;12.65;10.13;;;;;;;2.44;100.00;97767.09;5062048;28;20067;-69
2024/01/31 09:08:34;;;;;;;10.68;9.60;;;;;;;2.54;100.00;97750.38;5066191;28;20027;-69
2024/01/31 09:10:59;;;;;;;20.63;13.45;;;;;;;2.63;100.00;97756.22;5063526;28;20063;-69
2024/01/31 09:13:24;;;;;;;17.23;13.27;;;;;;;2.71;100.00;97739.50;5069620;28;20064;-69
2024/01/31 09:15:50;;;;;;;15.35;11.75;;;;;;;2.84;100.00;97746.94;5067738;28;20037;-69
2024/01/31 09:18:15;;;;;;;14.25;11.38;;;;;;;3.01;100.00;97733.47;5070251;28;20111;-68
2024/01/31 09:20:41;;;;;;;12.55;11.25;;;;;;;3.21;100.00;97729.44;5060275;28;20050;-68
2024/01/31 09:23:06;;;;;;;12.02;10.70;;;;;;;3.40;100.00;97727.09;5070147;28;20039;-68
2024/01/31 09:25:32;;;;;;;11.45;10.35;;;;;;;3.51;100.00;97726.78;5067441;28;20021;-69
2024/01/31 09:27:58;;;;;;;16.85;10.75;;;;;;;3.59;100.00;97719.56;5064133;28;20984;-69
2024/01/31 09:30:23;;;;;;;12.55;10.80;;;;;;;3.71;100.00;97708.75;5067737;28;20028;-69
2024/01/31 09:32:48;;;;;;;11.02;9.93;;;;;;;3.90;100.00;97715.97;5068055;28;20138;-69
2024/01/31 09:35:14;;;;;;;10.10;9.05;;;;;;;4.11;100.00;97710.94;5061481;28;20025;-69
2024/01/31 09:37:39;;;;;;;12.52;9.40;;;;;;;4.31;100.00;97710.25;5064833;28;20024;-69
2024/01/31 09:40:06;;;;;;;12.68;10.55;;;;;;;4.49;100.00;97707.91;5063587;28;20063;-69
2024/01/31 09:42:31;;;;;;;7.93;7.22;;;;;;;4.59;100.00;97704.91;5062959;28;20530;-69
2024/01/31 09:44:57;;;;;;;7.32;6.60;;;;;;;4.59;100.00;97697.09;5071404;28;20096;-69
2024/01/31 09:47:27;;;;;;;8.43;6.43;;;;;;;4.73;100.00;97687.88;5061448;28;20600;-68
2024/01/31 09:49:53;;;;;;;6.68;6.07;;;;;;;4.88;100.00;97689.09;5064332;28;20060;-68
2024/01/31 09:52:27;;;;;;;8.57;5.68;;;;;;;4.98;100.00;97687.00;5064487;28;20020;-69
2024/01/31 09:54:56;;;;;;;10.70;9.52;;;;;;;5.11;100.00;97693.44;5071431;28;20107;-69
2024/01/31 09:57:23;;;;;;;12.50;7.35;;;;;;;5.25;100.00;97697.28;5064499;28;20036;-68
2024/01/31 09:59:50;;;;;;;8.60;7.45;;;;;;;5.31;100.00;97694.44;5067289;28;20033;-69
2024/01/31 10:02:16;;;;;;;9.55;8.52;;;;;;;5.44;100.00;97687.81;5075792;28;20021;-69
2024/01/31 10:04:45;;;;;;;12.05;7.13;;;;;;;5.56;100.00;97701.28;5072875;28;20016;-69
2024/01/31 10:07:10;;;;;;;12.70;7.68;;;;;;;5.69;100.00;97699.91;5064662;28;20056;-69
2024/01/31 10:09:36;;;;;;;7.55;6.07;;;;;;;5.90;100.00;97693.84;5060767;28;20100;-69
2024/01/31 10:12:01;;;;;;;6.18;5.63;;;;;;;6.08;100.00;97689.63;5067544;28;20028;-69
2024/01/31 10:14:26;;;;;;;11.73;7.20;;;;;;;6.18;100.00;97685.72;5069671;28;20093;-69
2024/01/31 10:16:52;;;;;;;31.70;23.45;;;;;;;6.32;100.00;97681.69;5069341;28;20549;-69
2024/01/31 10:19:18;;;;;;;29.08;19.70;;;;;;;6.51;100.00;97687.78;5075767;28;20099;-69
2024/01/31 10:21:43;;;;;;;25.25;18.75;;;;;;;6.63;100.00;97681.19;5061847;28;20033;-69
2024/01/31 10:24:09;;;;;;;16.92;14.98;;;;;;;6.63;100.00;97681.19;5073632;28;20086;-69
2024/01/31 10:26:35;;;;;;;17.98;14.30;;;;;;;6.92;100.00;97679.00;5074823;28;20020;-69
2024/01/31 10:29:01;;;;;;;15.63;11.65;;;;;;;6.99;100.00;97666.47;5070383;28;20064;-69
2024/01/31 10:31:31;;;;;;;12.23;11.02;;;;;;;7.07;100.00;97661.72;5069700;28;20713;-69
2024/01/31 10:33:57;;;;;;;9.00;7.85;;;;;;;7.25;100.00;97649.53;5075713;28;20032;-69
2024/01/31 10:36:23;;;;;;;9.48;7.82;;;;;;;7.36;100.00;97635.91;5071881;28;20592;-69
2024/01/31 10:38:50;;;;;;;14.85;8.80;;;;;;;7.43;100.00;97639.94;5072883;28;20035;-69
2024/01/31 10:41:19;;;;;;;9.90;8.60;;;;;;;7.56;100.00;97634.94;5071733;28;20039;-69
2024/01/31 10:43:48;;;;;;;11.70;10.43;;;;;;;7.67;100.00;97631.81;5066950;28;20486;-69
2024/01/31 10:46:14;;;;;;;15.90;11.40;;;;;;;7.85;100.00;97637.88;5071351;28;20040;-69
2024/01/31 10:48:39;;;;;;;13.35;11.23;;;;;;;7.98;100.00;97640.75;5069359;28;20389;-69
2024/01/31 10:51:08;;;;;;;20.27;11.75;;;;;;;8.34;100.00;97635.47;5074197;28;20895;-68
2024/01/31 10:53:34;;;;;;;10.18;8.63;;;;;;;8.66;100.00;97627.69;5074009;28;20028;-69
2024/01/31 10:56:00;;;;;;;12.07;8.07;;;;;;;8.70;100.00;97609.06;5070950;28;20028;-69
2024/01/31 10:58:27;;;;;;;12.13;7.90;;;;;;;8.46;100.00;97604.16;5070923;28;20021;-69
2024/01/31 11:00:52;;;;;;;9.05;7.57;;;;;;;8.23;100.00;97604.53;5073218;28;20028;-69
2024/01/31 11:03:18;;;;;;;7.80;6.93;;;;;;;7.94;100.00;97602.47;5067554;28;20507;-69
2024/01/31 11:05:44;;;;;;;10.88;7.18;;;;;;;7.77;100.00;97603.34;5077329;28;20032;-69
2024/01/31 11:08:19;;;;;;;10.43;8.18;;;;;;;7.91;100.00;97596.53;5067803;28;20043;-69
2024/01/31 11:10:45;;;;;;;11.38;8.35;;;;;;;7.89;100.00;97607.13;5067427;28;20059;-69